Portada
METAR-TAF:

METAR-TAF

Aeropuertos :

Ancona, Italia

latitud: 43-37N, longitud: 013-22E, altitud: 12 m

Observación

El informe se hizo hace 18 minutos, a las 21:20 UTC
Viento 5 kt del sur, variando entre sur-sureste y suroeste
Temperatura 21°C
Humedad 60%
Presión 999 hPa
Visibilidad 10 km o más

METAR: LIPY 042120Z AUTO 19005KT 160V220 9999 BKN120/// BKN160/// 21/13 Q0999

Hora: 23:38 (21:38 UTC)

Pronóstico

El informe se hizo hace 4 horas y 38 minutos, a las 17:00 UTC
Pronóstico válido del 04 a las 18 UTC al 05 a las 18 UTC
Viento 7 kt del sur-sureste
Visibilidad 10 km o más
Cielo nuboso a una altura de 3000 ft
Temporalmente
del 05 a las 00 UTC al 05 a las 15 UTC
tormenta, lluvia

TAF: LIPY 041700Z 0418/0518 16007KT 9999 BKN030 TEMPO 0500/0515 TSRA

Observaciones y pronósticos meteorológicos de más de 4000 aeropuertos (mensajes METAR y TAF).

Los puntos amarillos y rojos representan las estaciones disponibles.

Ponga el ratón en el punto deseado para ver el nombre de la estación.

Haga clic para ver las observaciones y los pronósticos meteorológicos.

Para cambiar el mapa : haga clic en los botones verdes con una cruz de color negro para hacer un zoom, en el botón verde con un guión para alejar o en las flechas verdes para mapas adyacentes.


METAR-TAF: